createdAt,value
2019-03-16T00:05:01.652Z,39
2019-03-16T00:09:51.049Z,39
2019-03-16T00:14:51.083Z,39
2019-03-16T00:19:51.081Z,40
2019-03-16T00:24:51.031Z,40
2019-03-16T00:29:51.048Z,40
2019-03-16T00:34:51.042Z,39
2019-03-16T00:39:51.009Z,38
2019-03-16T00:44:51.008Z,40
2019-03-16T00:49:51.033Z,39
2019-03-16T00:54:51.029Z,40
2019-03-16T00:59:51.021Z,41
2019-03-16T01:04:51.015Z,41
2019-03-16T01:09:51.028Z,41
2019-03-16T01:14:50.978Z,41
2019-03-16T01:19:50.963Z,41
2019-03-16T01:24:51.003Z,42
2019-03-16T01:29:50.998Z,43
2019-03-16T01:34:50.957Z,41
2019-03-16T01:39:50.959Z,40
2019-03-16T01:44:51.016Z,44
2019-03-16T01:49:50.960Z,43
2019-03-16T01:54:50.972Z,46
2019-03-16T01:59:50.951Z,44
2019-03-16T02:04:50.910Z,45
2019-03-16T02:09:50.961Z,42
2019-03-16T02:14:50.928Z,43
2019-03-16T02:19:50.933Z,42
2019-03-16T02:24:50.941Z,44
2019-03-16T02:29:50.944Z,41
2019-03-16T02:34:50.950Z,44
2019-03-16T02:39:50.885Z,43
2019-03-16T02:44:51.002Z,44
2019-03-16T02:49:50.928Z,44
2019-03-16T02:54:50.899Z,44
2019-03-16T02:59:50.869Z,48
2019-03-16T03:04:50.897Z,46
2019-03-16T03:09:50.855Z,45
2019-03-16T03:14:50.849Z,46
2019-03-16T03:19:50.896Z,43
2019-03-16T03:24:50.892Z,45
2019-03-16T03:29:50.864Z,45
2019-03-16T03:34:50.828Z,45
2019-03-16T03:39:50.862Z,46
2019-03-16T03:44:50.829Z,47
2019-03-16T03:49:50.836Z,44
2019-03-16T03:54:50.857Z,48
2019-03-16T03:59:50.796Z,46
2019-03-16T04:04:50.782Z,47
2019-03-16T04:09:50.845Z,45
2019-03-16T04:14:50.958Z,47
2019-03-16T04:19:50.809Z,47
2019-03-16T04:24:50.788Z,47
2019-03-16T04:29:50.817Z,46
2019-03-16T04:34:50.778Z,47
2019-03-16T04:39:50.828Z,45
2019-03-16T04:44:50.756Z,49
2019-03-16T04:49:50.798Z,48
2019-03-16T04:54:50.767Z,50
2019-03-16T04:59:50.716Z,50
2019-03-16T05:04:50.780Z,50
2019-03-16T05:09:50.716Z,49
2019-03-16T05:14:50.742Z,50
2019-03-16T05:19:50.741Z,47
2019-03-16T05:24:50.738Z,49
2019-03-16T05:29:50.681Z,48
2019-03-16T05:34:56.982Z,49
2019-03-16T05:39:50.674Z,48
2019-03-16T05:44:50.683Z,47
2019-03-16T05:49:50.810Z,48
2019-03-16T05:54:50.651Z,47
2019-03-16T05:59:50.760Z,45
2019-03-16T06:04:50.701Z,46
2019-03-16T06:09:50.643Z,45
2019-03-16T06:14:50.635Z,48
2019-03-16T06:19:50.666Z,49
2019-03-16T06:24:50.653Z,48
2019-03-16T06:29:50.649Z,45
2019-03-16T06:34:50.659Z,45
2019-03-16T06:39:50.637Z,43
2019-03-16T06:44:50.613Z,45
2019-03-16T06:49:50.647Z,44
2019-03-16T06:54:50.634Z,44
2019-03-16T06:59:50.593Z,44
2019-03-16T07:04:50.612Z,43
2019-03-16T07:09:50.653Z,43
2019-03-16T07:14:50.605Z,43
2019-03-16T07:19:50.598Z,44
2019-03-16T07:24:51.948Z,42
2019-03-16T07:29:50.561Z,45
2019-03-16T07:34:50.556Z,48
2019-03-16T07:39:50.595Z,46
2019-03-16T07:44:50.572Z,45
2019-03-16T07:49:50.543Z,43
2019-03-16T07:54:50.563Z,43
2019-03-16T07:59:50.528Z,44
2019-03-16T08:04:50.537Z,43
2019-03-16T08:09:50.598Z,45
2019-03-16T08:14:50.688Z,44
2019-03-16T08:19:50.605Z,45
2019-03-16T08:24:50.571Z,45
2019-03-16T08:29:50.496Z,44
2019-03-16T08:34:50.496Z,46
2019-03-16T08:39:50.497Z,44
2019-03-16T08:44:50.577Z,45
2019-03-16T08:49:50.464Z,44
2019-03-16T08:54:50.488Z,42
2019-03-16T08:59:50.461Z,44
2019-03-16T09:04:50.456Z,40
2019-03-16T09:09:50.498Z,44
2019-03-16T09:14:50.506Z,44
2019-03-16T09:19:50.442Z,43
2019-03-16T09:24:50.448Z,42
2019-03-16T09:29:50.432Z,43
2019-03-16T09:34:50.424Z,44
2019-03-16T09:39:50.395Z,42
2019-03-16T09:44:51.208Z,44
2019-03-16T09:49:51.184Z,43
2019-03-16T09:54:51.146Z,41
2019-03-16T09:59:51.141Z,43
2019-03-16T10:04:51.160Z,38
2019-03-16T10:09:51.133Z,38
2019-03-16T10:14:51.164Z,39
2019-03-16T10:19:51.175Z,38
2019-03-16T10:24:51.136Z,34
2019-03-16T10:29:51.146Z,36
2019-03-16T10:34:51.129Z,34
2019-03-16T10:39:51.090Z,38
2019-03-16T10:44:51.093Z,38
2019-03-16T10:49:51.110Z,35
2019-03-16T10:54:51.131Z,35
2019-03-16T10:59:51.092Z,36
2019-03-16T11:04:51.069Z,34
2019-03-16T11:09:51.049Z,35
2019-03-16T11:14:51.133Z,32
2019-03-16T11:19:51.076Z,33
2019-03-16T11:24:51.072Z,33
2019-03-16T11:29:51.168Z,28
2019-03-16T11:34:51.054Z,28
2019-03-16T11:39:51.014Z,25
2019-03-16T11:44:51.080Z,24
2019-03-16T11:49:51.037Z,26
2019-03-16T11:54:52.277Z,23
2019-03-16T11:59:51.037Z,26
2019-03-16T12:04:51.005Z,27
2019-03-16T12:09:51.029Z,27
2019-03-16T12:14:51.014Z,32
2019-03-16T12:19:50.984Z,31
2019-03-16T12:24:50.974Z,30
2019-03-16T12:29:50.994Z,35
2019-03-16T12:34:50.994Z,34
2019-03-16T12:39:50.980Z,33
2019-03-16T12:44:50.990Z,32
2019-03-16T12:49:50.986Z,34
2019-03-16T12:54:50.953Z,31
2019-03-16T12:59:50.981Z,30
2019-03-16T13:04:50.936Z,27
2019-03-16T13:09:50.935Z,24
2019-03-16T13:14:50.956Z,24
2019-03-16T13:19:50.967Z,25
2019-03-16T13:24:50.904Z,26
2019-03-16T13:29:59.438Z,20
2019-03-16T13:34:50.948Z,21
2019-03-16T13:39:50.902Z,23
2019-03-16T13:44:50.915Z,24
2019-03-16T13:49:50.891Z,22
2019-03-16T13:54:51.073Z,21
2019-03-16T13:59:50.890Z,19
2019-03-16T14:04:50.947Z,18
2019-03-16T14:09:50.883Z,21
2019-03-16T14:14:50.870Z,14
2019-03-16T14:19:50.868Z,11
2019-03-16T14:24:50.839Z,8
2019-03-16T14:29:50.835Z,10
2019-03-16T14:34:51.091Z,6
2019-03-16T14:39:51.104Z,9
2019-03-16T14:44:50.813Z,9
2019-03-16T14:49:50.918Z,10
2019-03-16T14:54:50.836Z,8
2019-03-16T14:59:50.825Z,9
2019-03-16T15:04:50.820Z,7
2019-03-16T15:09:50.806Z,8
2019-03-16T15:14:50.829Z,14
2019-03-16T15:19:50.759Z,11
2019-03-16T15:24:50.813Z,7
2019-03-16T15:29:50.760Z,7
2019-03-16T15:34:50.785Z,5
2019-03-16T15:39:50.777Z,4
2019-03-16T15:44:50.744Z,4
2019-03-16T15:49:50.750Z,3
2019-03-16T15:54:50.790Z,4
2019-03-16T15:59:50.720Z,3
2019-03-16T16:04:50.725Z,6
2019-03-16T16:09:50.772Z,5
2019-03-16T16:14:50.759Z,4
2019-03-16T16:19:50.733Z,5
2019-03-16T16:24:50.746Z,5
2019-03-16T16:29:50.720Z,5
2019-03-16T16:34:50.679Z,5
2019-03-16T16:39:50.743Z,5
2019-03-16T16:44:50.721Z,5
2019-03-16T16:49:50.715Z,3
2019-03-16T16:54:50.675Z,6
2019-03-16T16:59:50.703Z,6
2019-03-16T17:04:50.724Z,5
2019-03-16T17:09:50.686Z,8
2019-03-16T17:14:50.809Z,9
2019-03-16T17:19:50.665Z,10
2019-03-16T17:24:50.643Z,11
2019-03-16T17:29:50.696Z,13
2019-03-16T17:34:50.651Z,15
2019-03-16T17:39:50.630Z,12
2019-03-16T17:44:51.340Z,17
2019-03-16T17:49:50.615Z,13
2019-03-16T17:54:50.631Z,11
2019-03-16T17:59:50.616Z,11
2019-03-16T18:04:50.599Z,10
2019-03-16T18:09:50.573Z,7
2019-03-16T18:14:50.619Z,8
2019-03-16T18:19:50.654Z,11
2019-03-16T18:24:50.603Z,10
2019-03-16T18:29:50.563Z,8
2019-03-16T18:34:50.603Z,6
2019-03-16T18:39:50.583Z,6
2019-03-16T18:44:50.516Z,11
2019-03-16T18:49:50.588Z,12
2019-03-16T18:54:50.522Z,10
2019-03-16T18:59:50.556Z,8
2019-03-16T19:04:50.535Z,6
2019-03-16T19:09:53.816Z,8
2019-03-16T19:14:50.513Z,4
2019-03-16T19:19:50.520Z,7
2019-03-16T19:24:50.542Z,6
2019-03-16T19:29:50.515Z,6
2019-03-16T19:34:50.581Z,6
2019-03-16T19:39:50.468Z,4
2019-03-16T19:44:50.528Z,5
2019-03-16T19:49:50.498Z,3
2019-03-16T19:54:50.494Z,3
2019-03-16T19:59:50.511Z,4
2019-03-16T20:04:50.495Z,6
2019-03-16T20:09:50.465Z,5
2019-03-16T20:14:50.485Z,4
2019-03-16T20:19:50.446Z,3
2019-03-16T20:24:50.440Z,4
2019-03-16T20:29:50.466Z,5
2019-03-16T20:34:50.513Z,4
2019-03-16T20:39:50.427Z,4
2019-03-16T20:44:50.474Z,4
2019-03-16T20:49:50.424Z,4
2019-03-16T20:54:50.410Z,4
2019-03-16T20:59:50.435Z,5
2019-03-16T21:04:50.440Z,6
2019-03-16T21:09:50.382Z,4
2019-03-16T21:14:50.420Z,5
2019-03-16T21:19:50.393Z,6
2019-03-16T21:24:50.371Z,3
2019-03-16T21:29:50.389Z,3
2019-03-16T21:34:50.361Z,5
2019-03-16T21:39:50.344Z,5
2019-03-16T21:44:50.344Z,6
2019-03-16T21:49:50.377Z,6
2019-03-16T21:54:50.331Z,5
2019-03-16T21:59:50.330Z,5
2019-03-16T22:04:51.073Z,5
2019-03-16T22:09:51.086Z,4
2019-03-16T22:14:51.044Z,8
2019-03-16T22:19:51.069Z,7
2019-03-16T22:24:51.044Z,7
2019-03-16T22:29:51.050Z,6
2019-03-16T22:34:51.048Z,4
2019-03-16T22:39:51.008Z,8
2019-03-16T22:44:51.054Z,6
2019-03-16T22:49:51.046Z,6
2019-03-16T22:54:50.980Z,6
2019-03-16T22:59:51.029Z,5
2019-03-16T23:04:50.977Z,5
2019-03-16T23:09:51.005Z,4
2019-03-16T23:14:51.043Z,4
2019-03-16T23:19:50.967Z,4
2019-03-16T23:24:50.968Z,7
2019-03-16T23:29:50.981Z,5
2019-03-16T23:34:50.968Z,4
2019-03-16T23:39:50.975Z,4
2019-03-16T23:44:51.000Z,4
2019-03-16T23:49:50.964Z,4
2019-03-16T23:54:50.955Z,5
2019-03-16T23:59:50.969Z,4
